sensor_id;sensor_type;location;lat;lon;timestamp;temperature;humidity
19552;DHT22;9921;47.186;9.778;2023-04-15T00:01:19;5.10;99.90
19552;DHT22;9921;47.186;9.778;2023-04-15T00:03:49;5.10;99.90
19552;DHT22;9921;47.186;9.778;2023-04-15T00:06:17;5.10;99.90
19552;DHT22;9921;47.186;9.778;2023-04-15T00:08:46;5.00;99.90
19552;DHT22;9921;47.186;9.778;2023-04-15T00:11:13;4.90;99.90
19552;DHT22;9921;47.186;9.778;2023-04-15T00:13:41;4.90;99.90
19552;DHT22;9921;47.186;9.778;2023-04-15T00:16:08;4.80;99.90
19552;DHT22;9921;47.186;9.778;2023-04-15T00:18:36;4.60;99.90
19552;DHT22;9921;47.186;9.778;2023-04-15T00:21:03;4.60;99.90
19552;DHT22;9921;47.186;9.778;2023-04-15T00:23:30;4.70;99.90
19552;DHT22;9921;47.186;9.778;2023-04-15T00:25:58;4.70;99.90
19552;DHT22;9921;47.186;9.778;2023-04-15T00:28:25;4.60;99.90
19552;DHT22;9921;47.186;9.778;2023-04-15T00:30:52;4.60;99.90
19552;DHT22;9921;47.186;9.778;2023-04-15T00:33:19;4.60;99.90
19552;DHT22;9921;47.186;9.778;2023-04-15T00:35:46;4.60;99.90
19552;DHT22;9921;47.186;9.778;2023-04-15T00:38:12;4.50;99.90
19552;DHT22;9921;47.186;9.778;2023-04-15T00:40:39;4.50;99.90
19552;DHT22;9921;47.186;9.778;2023-04-15T00:43:08;4.50;99.90
19552;DHT22;9921;47.186;9.778;2023-04-15T00:45:35;4.40;99.90
19552;DHT22;9921;47.186;9.778;2023-04-15T00:48:02;4.50;99.90
19552;DHT22;9921;47.186;9.778;2023-04-15T00:50:29;4.40;99.90
19552;DHT22;9921;47.186;9.778;2023-04-15T00:52:56;4.40;99.90
19552;DHT22;9921;47.186;9.778;2023-04-15T00:55:22;4.50;99.90
19552;DHT22;9921;47.186;9.778;2023-04-15T00:57:50;4.50;99.90
19552;DHT22;9921;47.186;9.778;2023-04-15T01:00:19;4.50;99.90
19552;DHT22;9921;47.186;9.778;2023-04-15T01:02:47;4.50;99.90
19552;DHT22;9921;47.186;9.778;2023-04-15T01:05:15;4.50;99.90
19552;DHT22;9921;47.186;9.778;2023-04-15T01:07:43;4.50;99.90
19552;DHT22;9921;47.186;9.778;2023-04-15T01:10:10;4.50;99.90
19552;DHT22;9921;47.186;9.778;2023-04-15T01:12:37;4.60;99.90
19552;DHT22;9921;47.186;9.778;2023-04-15T01:15:05;4.50;99.90
19552;DHT22;9921;47.186;9.778;2023-04-15T01:17:34;4.50;99.90
19552;DHT22;9921;47.186;9.778;2023-04-15T01:20:02;4.50;99.90
19552;DHT22;9921;47.186;9.778;2023-04-15T01:22:29;4.50;99.90
19552;DHT22;9921;47.186;9.778;2023-04-15T01:25:02;4.50;99.90
19552;DHT22;9921;47.186;9.778;2023-04-15T01:27:34;4.50;99.90
19552;DHT22;9921;47.186;9.778;2023-04-15T01:30:04;4.20;99.90
19552;DHT22;9921;47.186;9.778;2023-04-15T01:32:31;4.20;99.90
19552;DHT22;9921;47.186;9.778;2023-04-15T01:34:58;4.20;99.90
19552;DHT22;9921;47.186;9.778;2023-04-15T01:37:25;4.20;99.90
19552;DHT22;9921;47.186;9.778;2023-04-15T01:39:52;4.20;99.90
19552;DHT22;9921;47.186;9.778;2023-04-15T01:42:20;4.20;99.90
19552;DHT22;9921;47.186;9.778;2023-04-15T01:44:48;4.20;99.90
19552;DHT22;9921;47.186;9.778;2023-04-15T01:47:15;4.20;99.90
19552;DHT22;9921;47.186;9.778;2023-04-15T01:49:42;4.10;99.90
19552;DHT22;9921;47.186;9.778;2023-04-15T01:52:09;3.90;99.90
19552;DHT22;9921;47.186;9.778;2023-04-15T01:54:36;4.00;99.90
19552;DHT22;9921;47.186;9.778;2023-04-15T01:57:02;4.00;99.90
19552;DHT22;9921;47.186;9.778;2023-04-15T01:59:30;4.00;99.90
19552;DHT22;9921;47.186;9.778;2023-04-15T02:01:58;4.00;99.90
19552;DHT22;9921;47.186;9.778;2023-04-15T02:04:25;4.00;99.90
19552;DHT22;9921;47.186;9.778;2023-04-15T02:06:52;4.00;99.90
19552;DHT22;9921;47.186;9.778;2023-04-15T02:09:20;4.00;99.90
19552;DHT22;9921;47.186;9.778;2023-04-15T02:11:46;3.80;99.90
19552;DHT22;9921;47.186;9.778;2023-04-15T02:14:13;3.80;99.90
19552;DHT22;9921;47.186;9.778;2023-04-15T02:16:40;3.70;99.90
19552;DHT22;9921;47.186;9.778;2023-04-15T02:19:08;3.80;99.90
19552;DHT22;9921;47.186;9.778;2023-04-15T02:21:35;3.80;99.90
19552;DHT22;9921;47.186;9.778;2023-04-15T02:24:02;3.80;99.90
19552;DHT22;9921;47.186;9.778;2023-04-15T02:26:29;3.90;99.90
19552;DHT22;9921;47.186;9.778;2023-04-15T02:28:57;3.90;99.90
19552;DHT22;9921;47.186;9.778;2023-04-15T02:31:24;3.90;99.90
19552;DHT22;9921;47.186;9.778;2023-04-15T02:33:51;3.90;99.90
19552;DHT22;9921;47.186;9.778;2023-04-15T02:36:19;3.70;99.90
19552;DHT22;9921;47.186;9.778;2023-04-15T02:38:48;3.80;99.90
19552;DHT22;9921;47.186;9.778;2023-04-15T02:41:15;3.80;99.90
19552;DHT22;9921;47.186;9.778;2023-04-15T02:43:42;3.90;99.90
19552;DHT22;9921;47.186;9.778;2023-04-15T02:46:08;3.90;99.90
19552;DHT22;9921;47.186;9.778;2023-04-15T02:48:39;3.80;99.90
19552;DHT22;9921;47.186;9.778;2023-04-15T02:51:13;3.60;99.90
19552;DHT22;9921;47.186;9.778;2023-04-15T02:53:41;3.50;99.90
19552;DHT22;9921;47.186;9.778;2023-04-15T02:56:08;3.60;99.90
19552;DHT22;9921;47.186;9.778;2023-04-15T02:58:36;3.60;99.90
19552;DHT22;9921;47.186;9.778;2023-04-15T03:01:03;3.40;99.90
19552;DHT22;9921;47.186;9.778;2023-04-15T03:03:30;3.30;99.90
19552;DHT22;9921;47.186;9.778;2023-04-15T03:05:57;3.40;99.90
19552;DHT22;9921;47.186;9.778;2023-04-15T03:08:23;3.30;99.90
19552;DHT22;9921;47.186;9.778;2023-04-15T03:10:52;3.30;99.90
19552;DHT22;9921;47.186;9.778;2023-04-15T03:13:19;3.40;99.90
19552;DHT22;9921;47.186;9.778;2023-04-15T03:15:46;3.40;99.90
19552;DHT22;9921;47.186;9.778;2023-04-15T03:18:13;3.60;99.90
19552;DHT22;9921;47.186;9.778;2023-04-15T03:20:40;3.70;99.90
19552;DHT22;9921;47.186;9.778;2023-04-15T03:23:07;3.80;99.90
19552;DHT22;9921;47.186;9.778;2023-04-15T03:25:33;3.90;99.90
19552;DHT22;9921;47.186;9.778;2023-04-15T03:28:03;3.90;99.90
19552;DHT22;9921;47.186;9.778;2023-04-15T03:30:30;3.80;99.90
19552;DHT22;9921;47.186;9.778;2023-04-15T03:32:57;3.80;99.90
19552;DHT22;9921;47.186;9.778;2023-04-15T03:35:24;3.80;99.90
19552;DHT22;9921;47.186;9.778;2023-04-15T03:37:51;3.80;99.90
19552;DHT22;9921;47.186;9.778;2023-04-15T03:40:19;3.80;99.90
19552;DHT22;9921;47.186;9.778;2023-04-15T03:42:46;3.70;99.90
19552;DHT22;9921;47.186;9.778;2023-04-15T03:45:15;3.80;99.90
19552;DHT22;9921;47.186;9.778;2023-04-15T03:47:41;3.80;99.90
19552;DHT22;9921;47.186;9.778;2023-04-15T03:50:09;3.90;99.90
19552;DHT22;9921;47.186;9.778;2023-04-15T03:52:36;3.90;99.90
19552;DHT22;9921;47.186;9.778;2023-04-15T03:55:03;3.80;99.90
19552;DHT22;9921;47.186;9.778;2023-04-15T03:57:30;3.80;99.90
19552;DHT22;9921;47.186;9.778;2023-04-15T03:59:57;3.90;99.90
19552;DHT22;9921;47.186;9.778;2023-04-15T04:02:25;3.70;99.90
19552;DHT22;9921;47.186;9.778;2023-04-15T04:04:52;3.60;99.90
19552;DHT22;9921;47.186;9.778;2023-04-15T04:07:19;3.70;99.90
19552;DHT22;9921;47.186;9.778;2023-04-15T04:09:46;3.30;99.90
19552;DHT22;9921;47.186;9.778;2023-04-15T04:12:13;3.30;99.90
19552;DHT22;9921;47.186;9.778;2023-04-15T04:14:40;3.50;99.90
19552;DHT22;9921;47.186;9.778;2023-04-15T04:17:07;3.60;99.90
19552;DHT22;9921;47.186;9.778;2023-04-15T04:19:35;3.50;99.90
19552;DHT22;9921;47.186;9.778;2023-04-15T04:22:02;3.60;99.90
19552;DHT22;9921;47.186;9.778;2023-04-15T04:24:28;3.40;99.90
19552;DHT22;9921;47.186;9.778;2023-04-15T04:26:56;3.10;99.90
19552;DHT22;9921;47.186;9.778;2023-04-15T04:29:23;2.90;99.90
19552;DHT22;9921;47.186;9.778;2023-04-15T04:31:49;3.00;99.90
19552;DHT22;9921;47.186;9.778;2023-04-15T04:34:16;3.10;99.90
19552;DHT22;9921;47.186;9.778;2023-04-15T04:36:44;3.10;99.90
19552;DHT22;9921;47.186;9.778;2023-04-15T04:39:11;3.20;99.90
19552;DHT22;9921;47.186;9.778;2023-04-15T04:41:38;3.30;99.90
19552;DHT22;9921;47.186;9.778;2023-04-15T04:44:05;3.30;99.90
19552;DHT22;9921;47.186;9.778;2023-04-15T04:46:32;3.30;99.90
19552;DHT22;9921;47.186;9.778;2023-04-15T04:48:59;3.30;99.90
19552;DHT22;9921;47.186;9.778;2023-04-15T04:51:26;3.30;99.90
19552;DHT22;9921;47.186;9.778;2023-04-15T04:53:54;3.30;99.90
19552;DHT22;9921;47.186;9.778;2023-04-15T04:56:21;3.00;99.90
19552;DHT22;9921;47.186;9.778;2023-04-15T04:58:49;3.10;99.90
19552;DHT22;9921;47.186;9.778;2023-04-15T05:01:16;3.20;99.90
19552;DHT22;9921;47.186;9.778;2023-04-15T05:03:43;3.30;99.90
19552;DHT22;9921;47.186;9.778;2023-04-15T05:06:10;3.30;99.90
19552;DHT22;9921;47.186;9.778;2023-04-15T05:08:36;3.40;99.90
19552;DHT22;9921;47.186;9.778;2023-04-15T05:11:06;3.50;99.90
19552;DHT22;9921;47.186;9.778;2023-04-15T05:13:33;3.50;99.90
19552;DHT22;9921;47.186;9.778;2023-04-15T05:16:03;3.50;99.90
19552;DHT22;9921;47.186;9.778;2023-04-15T05:18:30;3.80;99.90
19552;DHT22;9921;47.186;9.778;2023-04-15T05:20:58;4.00;99.90
19552;DHT22;9921;47.186;9.778;2023-04-15T05:23:25;4.00;99.90
19552;DHT22;9921;47.186;9.778;2023-04-15T05:25:51;4.00;99.90
19552;DHT22;9921;47.186;9.778;2023-04-15T05:28:20;4.10;99.90
19552;DHT22;9921;47.186;9.778;2023-04-15T05:30:46;3.90;99.90
19552;DHT22;9921;47.186;9.778;2023-04-15T05:33:13;3.80;99.90
19552;DHT22;9921;47.186;9.778;2023-04-15T05:35:40;3.90;99.90
19552;DHT22;9921;47.186;9.778;2023-04-15T05:38:07;4.00;99.90
19552;DHT22;9921;47.186;9.778;2023-04-15T05:40:34;4.00;99.90
19552;DHT22;9921;47.186;9.778;2023-04-15T05:43:01;4.00;99.90
19552;DHT22;9921;47.186;9.778;2023-04-15T05:45:29;4.10;99.90
19552;DHT22;9921;47.186;9.778;2023-04-15T05:47:56;4.30;99.90
19552;DHT22;9921;47.186;9.778;2023-04-15T05:50:23;4.40;99.90
19552;DHT22;9921;47.186;9.778;2023-04-15T05:52:50;4.50;99.90
19552;DHT22;9921;47.186;9.778;2023-04-15T05:55:16;4.50;99.90
19552;DHT22;9921;47.186;9.778;2023-04-15T05:57:43;4.50;99.90
19552;DHT22;9921;47.186;9.778;2023-04-15T06:00:11;4.50;99.90
19552;DHT22;9921;47.186;9.778;2023-04-15T06:02:39;4.30;99.90
19552;DHT22;9921;47.186;9.778;2023-04-15T06:05:07;4.30;99.90
19552;DHT22;9921;47.186;9.778;2023-04-15T06:07:36;4.40;99.90
19552;DHT22;9921;47.186;9.778;2023-04-15T06:10:04;4.50;99.90
19552;DHT22;9921;47.186;9.778;2023-04-15T06:14:21;4.60;99.90
19552;DHT22;9921;47.186;9.778;2023-04-15T06:16:48;5.00;99.90
19552;DHT22;9921;47.186;9.778;2023-04-15T06:19:15;5.20;99.90
19552;DHT22;9921;47.186;9.778;2023-04-15T06:21:43;5.50;99.90
19552;DHT22;9921;47.186;9.778;2023-04-15T06:24:10;5.70;99.90
19552;DHT22;9921;47.186;9.778;2023-04-15T06:26:37;5.90;99.90
19552;DHT22;9921;47.186;9.778;2023-04-15T06:29:04;6.10;99.90
19552;DHT22;9921;47.186;9.778;2023-04-15T06:31:32;6.30;99.90
19552;DHT22;9921;47.186;9.778;2023-04-15T06:33:59;6.60;99.90
19552;DHT22;9921;47.186;9.778;2023-04-15T06:36:26;6.70;99.90
19552;DHT22;9921;47.186;9.778;2023-04-15T06:38:52;6.70;99.90
19552;DHT22;9921;47.186;9.778;2023-04-15T06:41:21;6.80;99.90
19552;DHT22;9921;47.186;9.778;2023-04-15T06:43:47;7.00;99.90
19552;DHT22;9921;47.186;9.778;2023-04-15T06:46:14;7.20;99.90
19552;DHT22;9921;47.186;9.778;2023-04-15T06:48:42;7.20;99.90
19552;DHT22;9921;47.186;9.778;2023-04-15T06:51:09;7.30;99.90
19552;DHT22;9921;47.186;9.778;2023-04-15T06:53:37;7.40;99.90
19552;DHT22;9921;47.186;9.778;2023-04-15T06:56:06;7.50;99.90
19552;DHT22;9921;47.186;9.778;2023-04-15T06:58:34;7.60;99.90
19552;DHT22;9921;47.186;9.778;2023-04-15T07:01:01;7.60;99.90
19552;DHT22;9921;47.186;9.778;2023-04-15T07:03:27;7.70;99.90
19552;DHT22;9921;47.186;9.778;2023-04-15T07:05:56;7.80;99.90
19552;DHT22;9921;47.186;9.778;2023-04-15T07:08:23;7.90;99.90
19552;DHT22;9921;47.186;9.778;2023-04-15T07:10:50;8.10;99.90
19552;DHT22;9921;47.186;9.778;2023-04-15T07:13:17;8.40;99.90
19552;DHT22;9921;47.186;9.778;2023-04-15T07:15:44;8.70;99.90
19552;DHT22;9921;47.186;9.778;2023-04-15T07:18:10;9.00;99.90
19552;DHT22;9921;47.186;9.778;2023-04-15T07:20:39;9.10;99.90
19552;DHT22;9921;47.186;9.778;2023-04-15T07:23:07;9.20;99.90
19552;DHT22;9921;47.186;9.778;2023-04-15T07:25:34;9.30;99.90
19552;DHT22;9921;47.186;9.778;2023-04-15T07:28:01;9.50;99.90
19552;DHT22;9921;47.186;9.778;2023-04-15T07:30:28;9.60;99.90
19552;DHT22;9921;47.186;9.778;2023-04-15T07:32:55;9.60;99.90
19552;DHT22;9921;47.186;9.778;2023-04-15T07:35:22;9.50;99.90
19552;DHT22;9921;47.186;9.778;2023-04-15T07:37:50;9.70;99.90
19552;DHT22;9921;47.186;9.778;2023-04-15T07:40:18;9.90;99.90
19552;DHT22;9921;47.186;9.778;2023-04-15T07:42:47;10.20;99.90
19552;DHT22;9921;47.186;9.778;2023-04-15T07:45:14;10.40;99.90
19552;DHT22;9921;47.186;9.778;2023-04-15T07:47:41;10.60;99.90
19552;DHT22;9921;47.186;9.778;2023-04-15T07:50:09;10.90;99.90
19552;DHT22;9921;47.186;9.778;2023-04-15T07:52:36;11.20;99.90
19552;DHT22;9921;47.186;9.778;2023-04-15T07:55:05;11.40;99.90
19552;DHT22;9921;47.186;9.778;2023-04-15T07:57:34;11.40;99.90
19552;DHT22;9921;47.186;9.778;2023-04-15T08:00:02;11.50;99.90
19552;DHT22;9921;47.186;9.778;2023-04-15T08:02:30;11.60;99.90
19552;DHT22;9921;47.186;9.778;2023-04-15T08:04:57;11.70;99.90
19552;DHT22;9921;47.186;9.778;2023-04-15T08:07:24;11.70;99.90
19552;DHT22;9921;47.186;9.778;2023-04-15T08:09:51;11.80;99.90
19552;DHT22;9921;47.186;9.778;2023-04-15T08:12:17;11.90;99.90
19552;DHT22;9921;47.186;9.778;2023-04-15T08:14:46;12.00;99.90
19552;DHT22;9921;47.186;9.778;2023-04-15T08:17:13;11.90;99.90
19552;DHT22;9921;47.186;9.778;2023-04-15T08:19:40;11.80;99.90
19552;DHT22;9921;47.186;9.778;2023-04-15T08:22:07;11.90;99.90
19552;DHT22;9921;47.186;9.778;2023-04-15T08:24:34;12.10;99.90
19552;DHT22;9921;47.186;9.778;2023-04-15T08:27:01;12.30;99.90
19552;DHT22;9921;47.186;9.778;2023-04-15T08:29:29;12.50;99.90
19552;DHT22;9921;47.186;9.778;2023-04-15T08:31:58;12.70;99.90
19552;DHT22;9921;47.186;9.778;2023-04-15T08:34:26;12.80;99.90
19552;DHT22;9921;47.186;9.778;2023-04-15T08:36:52;13.00;99.90
19552;DHT22;9921;47.186;9.778;2023-04-15T08:39:20;13.20;99.90
19552;DHT22;9921;47.186;9.778;2023-04-15T08:41:50;13.40;99.90
19552;DHT22;9921;47.186;9.778;2023-04-15T08:44:17;13.60;99.90
19552;DHT22;9921;47.186;9.778;2023-04-15T08:46:45;13.70;99.90
19552;DHT22;9921;47.186;9.778;2023-04-15T08:49:14;13.90;99.90
19552;DHT22;9921;47.186;9.778;2023-04-15T08:51:43;14.00;99.90
19552;DHT22;9921;47.186;9.778;2023-04-15T08:54:11;14.40;99.90
19552;DHT22;9921;47.186;9.778;2023-04-15T08:56:38;14.90;99.90
19552;DHT22;9921;47.186;9.778;2023-04-15T08:59:05;15.40;99.90
19552;DHT22;9921;47.186;9.778;2023-04-15T09:01:33;15.80;99.90
19552;DHT22;9921;47.186;9.778;2023-04-15T09:04:02;16.20;99.90
19552;DHT22;9921;47.186;9.778;2023-04-15T09:06:32;16.50;99.90
19552;DHT22;9921;47.186;9.778;2023-04-15T09:09:00;16.60;99.90
19552;DHT22;9921;47.186;9.778;2023-04-15T09:11:26;16.70;99.90
19552;DHT22;9921;47.186;9.778;2023-04-15T09:13:56;16.80;99.90
19552;DHT22;9921;47.186;9.778;2023-04-15T09:16:23;17.00;99.90
19552;DHT22;9921;47.186;9.778;2023-04-15T09:18:52;17.20;99.90
19552;DHT22;9921;47.186;9.778;2023-04-15T09:21:19;17.40;99.90
19552;DHT22;9921;47.186;9.778;2023-04-15T09:23:56;17.60;99.90
19552;DHT22;9921;47.186;9.778;2023-04-15T09:26:31;17.80;98.60
19552;DHT22;9921;47.186;9.778;2023-04-15T09:29:03;17.90;96.50
19552;DHT22;9921;47.186;9.778;2023-04-15T09:31:30;17.80;98.20
19552;DHT22;9921;47.186;9.778;2023-04-15T09:33:57;17.70;95.00
19552;DHT22;9921;47.186;9.778;2023-04-15T09:36:24;17.60;95.20
19552;DHT22;9921;47.186;9.778;2023-04-15T09:38:56;17.30;96.80
19552;DHT22;9921;47.186;9.778;2023-04-15T09:41:23;17.20;96.80
19552;DHT22;9921;47.186;9.778;2023-04-15T09:43:50;17.10;95.70
19552;DHT22;9921;47.186;9.778;2023-04-15T09:46:17;16.90;96.60
19552;DHT22;9921;47.186;9.778;2023-04-15T09:48:44;16.70;98.40
19552;DHT22;9921;47.186;9.778;2023-04-15T09:51:11;16.70;98.60
19552;DHT22;9921;47.186;9.778;2023-04-15T09:53:38;16.70;97.60
19552;DHT22;9921;47.186;9.778;2023-04-15T09:56:07;16.70;98.00
19552;DHT22;9921;47.186;9.778;2023-04-15T09:58:35;16.80;97.50
19552;DHT22;9921;47.186;9.778;2023-04-15T10:01:06;17.00;97.80
19552;DHT22;9921;47.186;9.778;2023-04-15T10:03:34;17.30;98.00
19552;DHT22;9921;47.186;9.778;2023-04-15T10:06:01;17.70;94.40
19552;DHT22;9921;47.186;9.778;2023-04-15T10:08:31;18.20;95.50
19552;DHT22;9921;47.186;9.778;2023-04-15T10:11:01;18.80;93.90
19552;DHT22;9921;47.186;9.778;2023-04-15T10:13:31;19.20;94.00
19552;DHT22;9921;47.186;9.778;2023-04-15T10:16:04;19.50;93.30
19552;DHT22;9921;47.186;9.778;2023-04-15T10:18:34;19.70;92.60
19552;DHT22;9921;47.186;9.778;2023-04-15T10:21:01;20.10;92.30
19552;DHT22;9921;47.186;9.778;2023-04-15T10:23:28;20.20;93.50
19552;DHT22;9921;47.186;9.778;2023-04-15T10:25:56;20.40;91.30
19552;DHT22;9921;47.186;9.778;2023-04-15T10:28:25;20.70;90.70
19552;DHT22;9921;47.186;9.778;2023-04-15T10:30:54;21.30;89.20
19552;DHT22;9921;47.186;9.778;2023-04-15T10:33:22;22.10;86.60
19552;DHT22;9921;47.186;9.778;2023-04-15T10:35:51;23.10;80.60
19552;DHT22;9921;47.186;9.778;2023-04-15T10:38:32;23.60;79.20
19552;DHT22;9921;47.186;9.778;2023-04-15T10:41:13;24.70;78.00
19552;DHT22;9921;47.186;9.778;2023-04-15T10:43:46;26.10;74.50
19552;DHT22;9921;47.186;9.778;2023-04-15T10:46:18;26.90;64.30
19552;DHT22;9921;47.186;9.778;2023-04-15T10:48:49;27.50;62.90
19552;DHT22;9921;47.186;9.778;2023-04-15T10:51:26;27.30;56.00
19552;DHT22;9921;47.186;9.778;2023-04-15T10:53:56;27.20;57.40
19552;DHT22;9921;47.186;9.778;2023-04-15T10:56:24;26.80;55.10
19552;DHT22;9921;47.186;9.778;2023-04-15T10:58:51;26.30;56.90
19552;DHT22;9921;47.186;9.778;2023-04-15T11:01:21;25.90;56.40
19552;DHT22;9921;47.186;9.778;2023-04-15T11:03:48;25.10;57.60
19552;DHT22;9921;47.186;9.778;2023-04-15T11:06:16;24.30;57.30
19552;DHT22;9921;47.186;9.778;2023-04-15T11:08:56;24.00;57.30
19552;DHT22;9921;47.186;9.778;2023-04-15T11:14:23;23.20;55.30
19552;DHT22;9921;47.186;9.778;2023-04-15T11:16:52;22.00;58.10
19552;DHT22;9921;47.186;9.778;2023-04-15T11:19:19;21.30;59.30
19552;DHT22;9921;47.186;9.778;2023-04-15T11:21:45;21.00;59.00
19552;DHT22;9921;47.186;9.778;2023-04-15T11:24:23;20.50;60.10
19552;DHT22;9921;47.186;9.778;2023-04-15T11:26:56;19.70;62.00
19552;DHT22;9921;47.186;9.778;2023-04-15T11:29:28;19.20;62.30
19552;DHT22;9921;47.186;9.778;2023-04-15T11:32:04;18.60;63.90
19552;DHT22;9921;47.186;9.778;2023-04-15T11:34:32;18.10;66.30
19552;DHT22;9921;47.186;9.778;2023-04-15T11:37:03;17.70;67.20
19552;DHT22;9921;47.186;9.778;2023-04-15T11:39:30;17.30;68.90
19552;DHT22;9921;47.186;9.778;2023-04-15T11:41:57;17.10;70.50
19552;DHT22;9921;47.186;9.778;2023-04-15T11:44:24;16.80;71.70
19552;DHT22;9921;47.186;9.778;2023-04-15T11:46:51;16.60;70.80
19552;DHT22;9921;47.186;9.778;2023-04-15T11:49:29;16.50;72.70
19552;DHT22;9921;47.186;9.778;2023-04-15T11:51:58;16.40;73.30
19552;DHT22;9921;47.186;9.778;2023-04-15T11:54:25;16.20;74.70
19552;DHT22;9921;47.186;9.778;2023-04-15T11:56:52;15.90;74.40
19552;DHT22;9921;47.186;9.778;2023-04-15T11:59:19;15.60;76.50
19552;DHT22;9921;47.186;9.778;2023-04-15T12:01:46;15.40;79.00
19552;DHT22;9921;47.186;9.778;2023-04-15T12:04:13;15.40;79.70
19552;DHT22;9921;47.186;9.778;2023-04-15T12:06:43;15.40;78.60
19552;DHT22;9921;47.186;9.778;2023-04-15T12:09:11;15.30;76.60
19552;DHT22;9921;47.186;9.778;2023-04-15T12:11:43;15.20;78.00
19552;DHT22;9921;47.186;9.778;2023-04-15T12:14:15;15.20;78.80
19552;DHT22;9921;47.186;9.778;2023-04-15T12:16:43;15.20;78.40
19552;DHT22;9921;47.186;9.778;2023-04-15T12:19:13;15.20;79.30
19552;DHT22;9921;47.186;9.778;2023-04-15T12:21:45;15.20;79.90
19552;DHT22;9921;47.186;9.778;2023-04-15T12:24:12;15.30;79.90
19552;DHT22;9921;47.186;9.778;2023-04-15T12:26:44;15.20;79.30
19552;DHT22;9921;47.186;9.778;2023-04-15T12:29:12;15.10;82.90
19552;DHT22;9921;47.186;9.778;2023-04-15T12:31:48;15.30;82.60
19552;DHT22;9921;47.186;9.778;2023-04-15T12:34:16;15.50;79.50
19552;DHT22;9921;47.186;9.778;2023-04-15T12:36:45;15.70;80.20
19552;DHT22;9921;47.186;9.778;2023-04-15T12:39:12;15.70;79.40
19552;DHT22;9921;47.186;9.778;2023-04-15T12:41:39;15.70;79.60
19552;DHT22;9921;47.186;9.778;2023-04-15T12:44:06;15.70;80.70
19552;DHT22;9921;47.186;9.778;2023-04-15T12:46:33;15.70;80.60
19552;DHT22;9921;47.186;9.778;2023-04-15T12:49:00;15.70;82.10
19552;DHT22;9921;47.186;9.778;2023-04-15T12:51:27;15.80;79.20
19552;DHT22;9921;47.186;9.778;2023-04-15T12:53:55;16.00;78.30
19552;DHT22;9921;47.186;9.778;2023-04-15T12:56:22;16.00;79.00
19552;DHT22;9921;47.186;9.778;2023-04-15T12:58:49;15.90;79.00
19552;DHT22;9921;47.186;9.778;2023-04-15T13:01:16;15.70;80.00
19552;DHT22;9921;47.186;9.778;2023-04-15T13:03:43;15.60;82.20
19552;DHT22;9921;47.186;9.778;2023-04-15T13:06:10;15.40;83.00
19552;DHT22;9921;47.186;9.778;2023-04-15T13:08:37;15.20;79.10
19552;DHT22;9921;47.186;9.778;2023-04-15T13:11:05;15.10;80.50
19552;DHT22;9921;47.186;9.778;2023-04-15T13:13:32;15.10;77.60
19552;DHT22;9921;47.186;9.778;2023-04-15T13:15:59;15.10;77.40
19552;DHT22;9921;47.186;9.778;2023-04-15T13:18:26;15.10;78.30
19552;DHT22;9921;47.186;9.778;2023-04-15T13:20:53;15.10;81.90
19552;DHT22;9921;47.186;9.778;2023-04-15T13:23:21;14.90;83.00
19552;DHT22;9921;47.186;9.778;2023-04-15T13:25:48;14.70;86.30
19552;DHT22;9921;47.186;9.778;2023-04-15T13:28:17;14.50;87.60
19552;DHT22;9921;47.186;9.778;2023-04-15T13:30:44;14.30;90.60
19552;DHT22;9921;47.186;9.778;2023-04-15T13:33:11;14.00;90.10
19552;DHT22;9921;47.186;9.778;2023-04-15T13:35:38;13.80;88.10
19552;DHT22;9921;47.186;9.778;2023-04-15T13:38:05;13.90;89.50
19552;DHT22;9921;47.186;9.778;2023-04-15T13:40:32;14.00;89.70
19552;DHT22;9921;47.186;9.778;2023-04-15T13:42:59;14.00;90.70
19552;DHT22;9921;47.186;9.778;2023-04-15T13:45:28;14.00;90.90
19552;DHT22;9921;47.186;9.778;2023-04-15T13:47:57;14.10;89.40
19552;DHT22;9921;47.186;9.778;2023-04-15T13:50:26;14.20;90.00
19552;DHT22;9921;47.186;9.778;2023-04-15T13:52:52;14.20;86.40
19552;DHT22;9921;47.186;9.778;2023-04-15T13:55:19;14.20;88.00
19552;DHT22;9921;47.186;9.778;2023-04-15T13:57:46;14.30;87.40
19552;DHT22;9921;47.186;9.778;2023-04-15T14:00:15;14.30;89.30
19552;DHT22;9921;47.186;9.778;2023-04-15T14:02:43;14.30;90.40
19552;DHT22;9921;47.186;9.778;2023-04-15T14:05:10;14.40;89.70
19552;DHT22;9921;47.186;9.778;2023-04-15T14:07:40;14.00;88.00
19552;DHT22;9921;47.186;9.778;2023-04-15T14:10:07;13.70;85.60
19552;DHT22;9921;47.186;9.778;2023-04-15T14:12:34;13.50;86.20
19552;DHT22;9921;47.186;9.778;2023-04-15T14:15:01;13.50;85.40
19552;DHT22;9921;47.186;9.778;2023-04-15T14:17:28;13.40;84.10
19552;DHT22;9921;47.186;9.778;2023-04-15T14:19:56;13.40;86.10
19552;DHT22;9921;47.186;9.778;2023-04-15T14:22:23;13.40;86.40
19552;DHT22;9921;47.186;9.778;2023-04-15T14:24:50;13.60;88.30
19552;DHT22;9921;47.186;9.778;2023-04-15T14:27:20;13.30;87.60
19552;DHT22;9921;47.186;9.778;2023-04-15T14:29:46;12.90;89.30
19552;DHT22;9921;47.186;9.778;2023-04-15T14:32:13;12.60;90.90
19552;DHT22;9921;47.186;9.778;2023-04-15T14:34:40;12.40;90.00
19552;DHT22;9921;47.186;9.778;2023-04-15T14:37:08;12.20;90.30
19552;DHT22;9921;47.186;9.778;2023-04-15T14:39:35;12.20;91.10
19552;DHT22;9921;47.186;9.778;2023-04-15T14:42:02;12.30;92.70
19552;DHT22;9921;47.186;9.778;2023-04-15T14:44:29;12.30;91.30
19552;DHT22;9921;47.186;9.778;2023-04-15T14:46:56;12.40;91.50
19552;DHT22;9921;47.186;9.778;2023-04-15T14:49:23;12.50;90.40
19552;DHT22;9921;47.186;9.778;2023-04-15T14:51:50;12.60;90.70
19552;DHT22;9921;47.186;9.778;2023-04-15T14:54:18;12.50;90.80
19552;DHT22;9921;47.186;9.778;2023-04-15T14:56:45;12.60;91.10
19552;DHT22;9921;47.186;9.778;2023-04-15T14:59:12;12.80;91.80
19552;DHT22;9921;47.186;9.778;2023-04-15T15:01:39;12.80;91.60
19552;DHT22;9921;47.186;9.778;2023-04-15T15:04:06;12.60;92.30
19552;DHT22;9921;47.186;9.778;2023-04-15T15:06:33;12.50;91.00
19552;DHT22;9921;47.186;9.778;2023-04-15T15:09:00;12.40;92.20
19552;DHT22;9921;47.186;9.778;2023-04-15T15:11:28;12.30;92.60
19552;DHT22;9921;47.186;9.778;2023-04-15T15:13:55;12.30;93.70
19552;DHT22;9921;47.186;9.778;2023-04-15T15:16:22;12.20;92.20
19552;DHT22;9921;47.186;9.778;2023-04-15T15:18:50;12.10;92.70
19552;DHT22;9921;47.186;9.778;2023-04-15T15:21:17;12.10;94.40
19552;DHT22;9921;47.186;9.778;2023-04-15T15:23:44;12.00;94.10
19552;DHT22;9921;47.186;9.778;2023-04-15T15:26:10;12.00;93.20
19552;DHT22;9921;47.186;9.778;2023-04-15T15:28:39;11.90;93.70
19552;DHT22;9921;47.186;9.778;2023-04-15T15:31:06;11.90;93.90
19552;DHT22;9921;47.186;9.778;2023-04-15T15:33:33;12.00;94.80
19552;DHT22;9921;47.186;9.778;2023-04-15T15:36:00;12.00;94.00
19552;DHT22;9921;47.186;9.778;2023-04-15T15:38:27;11.90;92.30
19552;DHT22;9921;47.186;9.778;2023-04-15T15:40:54;12.00;93.70
19552;DHT22;9921;47.186;9.778;2023-04-15T15:43:20;12.10;94.70
19552;DHT22;9921;47.186;9.778;2023-04-15T15:45:49;12.30;93.70
19552;DHT22;9921;47.186;9.778;2023-04-15T15:48:17;12.40;94.80
19552;DHT22;9921;47.186;9.778;2023-04-15T15:50:44;12.70;92.90
19552;DHT22;9921;47.186;9.778;2023-04-15T15:53:11;12.80;93.40
19552;DHT22;9921;47.186;9.778;2023-04-15T15:55:42;12.90;92.90
19552;DHT22;9921;47.186;9.778;2023-04-15T15:58:09;13.00;92.30
19552;DHT22;9921;47.186;9.778;2023-04-15T16:00:36;13.10;91.80